createdAt,value
2018-06-29T00:00:07.172Z,17.10
2018-06-29T00:02:35.800Z,16.90
2018-06-29T00:05:04.632Z,17.00
2018-06-29T00:07:33.213Z,16.90
2018-06-29T00:10:01.875Z,16.90
2018-06-29T00:12:30.559Z,16.90
2018-06-29T00:14:59.385Z,16.80
2018-06-29T00:17:28.037Z,16.70
2018-06-29T00:19:56.674Z,16.70
2018-06-29T00:22:25.224Z,16.60
2018-06-29T00:24:54.204Z,16.60
2018-06-29T00:27:22.905Z,16.50
2018-06-29T00:29:51.483Z,16.40
2018-06-29T00:32:23.057Z,16.40
2018-06-29T00:34:51.634Z,16.30
2018-06-29T00:37:20.200Z,16.20
2018-06-29T00:39:49.003Z,16.20
2018-06-29T00:42:17.632Z,16.20
2018-06-29T00:44:46.203Z,16.20
2018-06-29T00:47:14.736Z,16.20
2018-06-29T00:49:43.302Z,16.20
2018-06-29T00:52:11.807Z,16.20
2018-06-29T00:54:40.528Z,16.10
2018-06-29T00:57:08.992Z,16.00
2018-06-29T00:59:37.532Z,16.00
2018-06-29T01:02:06.140Z,16.00
2018-06-29T01:04:34.676Z,15.90
2018-06-29T01:07:03.211Z,15.90
2018-06-29T01:09:31.783Z,15.90
2018-06-29T01:12:00.299Z,15.90
2018-06-29T01:14:28.867Z,15.70
2018-06-29T01:16:57.433Z,15.60
2018-06-29T01:19:25.914Z,15.60
2018-06-29T01:21:54.546Z,15.60
2018-06-29T01:24:23.492Z,15.50
2018-06-29T01:26:52.101Z,15.50
2018-06-29T01:29:20.635Z,15.60
2018-06-29T01:31:49.168Z,15.60
2018-06-29T01:34:17.697Z,15.50
2018-06-29T01:36:46.268Z,15.50
2018-06-29T01:39:14.817Z,15.40
2018-06-29T01:41:43.347Z,15.30
2018-06-29T01:44:11.896Z,15.30
2018-06-29T01:46:40.463Z,15.30
2018-06-29T01:49:15.603Z,15.30
2018-06-29T01:51:44.186Z,15.30
2018-06-29T01:54:20.458Z,15.30
2018-06-29T01:56:49.006Z,15.40
2018-06-29T01:59:17.837Z,15.40
2018-06-29T02:01:46.390Z,15.40
2018-06-29T02:04:14.998Z,15.30
2018-06-29T02:06:43.533Z,15.30
2018-06-29T02:09:12.100Z,15.30
2018-06-29T02:11:40.665Z,15.20
2018-06-29T02:14:09.306Z,15.20
2018-06-29T02:16:37.867Z,15.10
2018-06-29T02:19:06.444Z,15.10
2018-06-29T02:21:34.949Z,15.00
2018-06-29T02:24:03.536Z,15.00
2018-06-29T02:26:32.095Z,14.90
2018-06-29T02:29:00.633Z,14.90
2018-06-29T02:31:29.183Z,14.80
2018-06-29T02:33:57.796Z,14.80
2018-06-29T02:36:26.426Z,14.70
2018-06-29T02:38:54.971Z,14.70
2018-06-29T02:41:23.574Z,14.60
2018-06-29T02:43:52.139Z,14.60
2018-06-29T02:46:20.648Z,14.60
2018-06-29T02:48:49.168Z,14.60
2018-06-29T02:51:17.736Z,14.60
2018-06-29T02:53:46.297Z,14.50
2018-06-29T02:56:14.842Z,14.60
2018-06-29T02:58:43.382Z,14.50
2018-06-29T03:01:12.007Z,14.50
2018-06-29T03:03:40.550Z,14.50
2018-06-29T03:06:09.241Z,14.50
2018-06-29T03:08:37.776Z,14.50
2018-06-29T03:11:06.399Z,14.50
2018-06-29T03:13:35.116Z,14.50
2018-06-29T03:16:04.064Z,14.50
2018-06-29T03:18:33.050Z,14.50
2018-06-29T03:21:01.612Z,14.50
2018-06-29T03:23:30.175Z,14.60
2018-06-29T03:25:58.750Z,14.60
2018-06-29T03:28:27.379Z,14.60
2018-06-29T03:30:56.713Z,14.50
2018-06-29T03:33:25.314Z,14.50
2018-06-29T03:35:53.878Z,14.50
2018-06-29T03:38:22.439Z,14.50
2018-06-29T03:40:51.027Z,14.50
2018-06-29T03:43:19.626Z,14.50
2018-06-29T03:45:48.144Z,14.50
2018-06-29T03:48:16.691Z,14.50
2018-06-29T03:50:45.243Z,14.50
2018-06-29T03:53:13.800Z,14.50
2018-06-29T03:55:42.434Z,14.60
2018-06-29T03:58:10.988Z,14.60
2018-06-29T04:00:39.788Z,14.60
2018-06-29T04:03:08.288Z,14.70
2018-06-29T04:05:36.805Z,14.70
2018-06-29T04:08:05.336Z,14.80
2018-06-29T04:10:33.906Z,14.90
2018-06-29T04:13:02.705Z,15.00
2018-06-29T04:15:31.529Z,15.10
2018-06-29T04:18:00.100Z,15.20
2018-06-29T04:20:28.687Z,15.20
2018-06-29T04:22:57.557Z,15.30
2018-06-29T04:25:26.136Z,15.40
2018-06-29T04:27:54.747Z,15.50
2018-06-29T04:30:23.829Z,15.60
2018-06-29T04:32:52.430Z,15.80
2018-06-29T04:35:21.315Z,15.90
2018-06-29T04:37:49.900Z,16.00
2018-06-29T04:40:18.510Z,16.20
2018-06-29T04:42:47.072Z,16.30
2018-06-29T04:45:15.751Z,16.40
2018-06-29T04:47:44.230Z,16.50
2018-06-29T04:50:12.909Z,16.70
2018-06-29T04:52:41.368Z,16.90
2018-06-29T04:55:10.266Z,17.00
2018-06-29T04:57:38.846Z,17.20
2018-06-29T05:00:07.420Z,17.30
2018-06-29T05:02:35.951Z,17.40
2018-06-29T05:05:04.666Z,17.60
2018-06-29T05:07:33.198Z,17.80
2018-06-29T05:10:01.777Z,18.00
2018-06-29T05:12:30.372Z,18.20
2018-06-29T05:14:58.954Z,18.40
2018-06-29T05:17:27.533Z,18.50
2018-06-29T05:19:56.525Z,18.70
2018-06-29T05:22:25.211Z,18.80
2018-06-29T05:24:54.564Z,18.90
2018-06-29T05:27:23.443Z,19.10
2018-06-29T05:29:51.996Z,19.20
2018-06-29T05:32:20.677Z,19.30
2018-06-29T05:34:49.315Z,19.50
2018-06-29T05:37:17.939Z,19.60
2018-06-29T05:39:46.554Z,19.70
2018-06-29T05:42:15.215Z,19.80
2018-06-29T05:44:43.774Z,20.00
2018-06-29T05:47:12.360Z,20.20
2018-06-29T05:49:40.958Z,20.20
2018-06-29T05:52:09.538Z,20.40
2018-06-29T05:54:38.333Z,20.60
2018-06-29T05:57:06.944Z,20.60
2018-06-29T05:59:35.600Z,20.70
2018-06-29T06:02:04.936Z,20.80
2018-06-29T06:04:34.356Z,20.90
2018-06-29T06:07:02.946Z,21.00
2018-06-29T06:09:31.578Z,21.00
2018-06-29T06:12:00.162Z,21.10
2018-06-29T06:14:29.124Z,21.20
2018-06-29T06:16:57.791Z,21.30
2018-06-29T06:19:37.830Z,21.40
2018-06-29T06:22:06.382Z,21.50
2018-06-29T06:24:34.924Z,21.60
2018-06-29T06:27:03.698Z,21.70
2018-06-29T06:29:32.326Z,21.70
2018-06-29T06:32:01.289Z,21.70
2018-06-29T06:34:29.825Z,21.80
2018-06-29T06:36:58.485Z,21.90
2018-06-29T06:39:27.581Z,22.00
2018-06-29T06:41:56.269Z,22.10
2018-06-29T06:44:24.903Z,22.10
2018-06-29T06:46:53.654Z,22.20
2018-06-29T06:49:22.336Z,22.20
2018-06-29T06:51:50.974Z,22.30
2018-06-29T06:54:19.600Z,22.40
2018-06-29T06:56:48.246Z,22.50
2018-06-29T06:59:16.873Z,22.60
2018-06-29T07:01:45.835Z,22.70
2018-06-29T07:04:14.499Z,22.90
2018-06-29T07:06:43.158Z,23.10
2018-06-29T07:09:14.788Z,23.20
2018-06-29T07:11:43.439Z,23.40
2018-06-29T07:14:12.046Z,23.50
2018-06-29T07:16:40.943Z,23.70
2018-06-29T07:19:09.614Z,23.80
2018-06-29T07:21:38.598Z,24.00
2018-06-29T07:24:07.242Z,24.20
2018-06-29T07:26:36.743Z,24.50
2018-06-29T07:29:05.492Z,24.70
2018-06-29T07:31:34.158Z,24.80
2018-06-29T07:34:02.924Z,25.00
2018-06-29T07:36:31.757Z,25.30
2018-06-29T07:39:00.780Z,25.70
2018-06-29T07:41:30.817Z,26.00
2018-06-29T07:44:00.146Z,26.10
2018-06-29T07:48:57.120Z,26.80
2018-06-29T07:51:25.700Z,26.70
2018-06-29T07:53:55.296Z,26.80
2018-06-29T07:56:24.255Z,26.60
2018-06-29T07:58:52.866Z,27.10
2018-06-29T08:01:21.484Z,27.70
2018-06-29T08:03:50.093Z,28.10
2018-06-29T08:06:19.167Z,27.80
2018-06-29T08:11:16.194Z,28.30
2018-06-29T08:13:45.494Z,28.80
2018-06-29T08:16:14.144Z,29.20
2018-06-29T08:21:11.066Z,29.30
2018-06-29T08:23:39.691Z,29.10
2018-06-29T08:26:19.378Z,28.90
2018-06-29T08:28:48.309Z,29.30
2018-06-29T08:31:16.945Z,29.80
2018-06-29T08:33:45.792Z,30.20
2018-06-29T08:36:14.633Z,30.40
2018-06-29T08:38:43.518Z,29.80
2018-06-29T08:41:13.139Z,29.90
2018-06-29T08:43:41.880Z,30.20
2018-06-29T08:46:10.547Z,30.60
2018-06-29T08:48:39.324Z,30.70
2018-06-29T08:51:08.333Z,31.00
2018-06-29T08:53:37.625Z,31.30
2018-06-29T08:56:06.257Z,31.40
2018-06-29T08:58:34.889Z,31.50
2018-06-29T09:01:03.733Z,31.70
2018-06-29T09:03:32.939Z,31.80
2018-06-29T09:06:01.633Z,31.10
2018-06-29T09:08:30.216Z,31.30
2018-06-29T09:10:58.956Z,31.80
2018-06-29T09:13:27.725Z,31.60
2018-06-29T09:15:56.366Z,31.70
2018-06-29T09:18:25.372Z,32.00
2018-06-29T09:20:54.489Z,32.00
2018-06-29T09:23:23.260Z,32.40
2018-06-29T09:25:51.965Z,32.00
2018-06-29T09:28:20.649Z,31.50
2018-06-29T09:30:49.349Z,31.90
2018-06-29T09:33:19.148Z,32.10
2018-06-29T09:35:47.964Z,32.30
2018-06-29T09:38:16.649Z,32.00
2018-06-29T09:40:45.524Z,31.60
2018-06-29T09:43:14.770Z,31.50
2018-06-29T09:45:43.736Z,31.90
2018-06-29T09:48:12.930Z,32.30
2018-06-29T09:50:42.632Z,32.50
2018-06-29T09:53:12.088Z,31.70
2018-06-29T09:55:41.448Z,31.80
2018-06-29T09:58:10.054Z,31.90
2018-06-29T10:00:38.731Z,32.10
2018-06-29T10:03:07.356Z,32.60
2018-06-29T10:05:35.957Z,32.50
2018-06-29T10:08:05.081Z,32.10
2018-06-29T10:10:33.769Z,32.60
2018-06-29T10:13:04.277Z,33.00
2018-06-29T10:15:33.298Z,33.00
2018-06-29T10:18:02.019Z,32.20
2018-06-29T10:20:30.636Z,32.90
2018-06-29T10:22:59.503Z,33.00
2018-06-29T10:25:28.233Z,33.50
2018-06-29T10:27:57.286Z,32.90
2018-06-29T10:30:25.946Z,32.50
2018-06-29T10:32:54.573Z,32.20
2018-06-29T10:35:23.232Z,32.30
2018-06-29T10:37:52.123Z,32.90
2018-06-29T10:40:20.892Z,33.20
2018-06-29T10:42:49.575Z,32.90
2018-06-29T10:45:18.178Z,33.10
2018-06-29T10:47:47.073Z,32.80
2018-06-29T10:50:16.020Z,33.00
2018-06-29T10:52:45.110Z,32.20
2018-06-29T10:55:13.794Z,32.60
2018-06-29T10:57:42.363Z,32.60
2018-06-29T11:00:10.967Z,32.90
2018-06-29T11:02:39.957Z,33.60
2018-06-29T11:05:08.591Z,33.00
2018-06-29T11:07:37.164Z,33.70
2018-06-29T11:10:07.005Z,33.70
2018-06-29T11:12:35.735Z,34.20
2018-06-29T11:15:04.765Z,33.90
2018-06-29T11:17:33.427Z,34.40
2018-06-29T11:20:02.129Z,34.10
2018-06-29T11:22:30.917Z,34.00
2018-06-29T11:25:00.139Z,33.40
2018-06-29T11:27:29.106Z,32.20
2018-06-29T11:29:57.809Z,32.20
2018-06-29T11:32:26.511Z,32.50
2018-06-29T11:34:55.481Z,32.90
2018-06-29T11:37:24.150Z,32.90
2018-06-29T11:39:52.877Z,33.20
2018-06-29T11:42:21.520Z,33.30
2018-06-29T11:44:50.982Z,33.40
2018-06-29T11:47:19.623Z,33.90
2018-06-29T11:52:16.490Z,33.50
2018-06-29T11:54:45.464Z,34.20
2018-06-29T11:57:14.144Z,33.50
2018-06-29T11:59:43.061Z,33.50
2018-06-29T12:02:11.768Z,33.70
2018-06-29T12:04:40.439Z,34.20
2018-06-29T12:07:09.240Z,34.10
2018-06-29T12:09:37.977Z,34.10
2018-06-29T12:12:07.364Z,33.90
2018-06-29T12:14:36.102Z,34.10
2018-06-29T12:17:05.721Z,34.40
2018-06-29T12:19:34.382Z,34.30
2018-06-29T12:22:03.038Z,34.40
2018-06-29T12:24:31.631Z,34.40
2018-06-29T12:27:00.323Z,34.60
2018-06-29T12:29:28.932Z,34.40
2018-06-29T12:31:57.495Z,34.40
2018-06-29T12:34:26.206Z,35.00
2018-06-29T12:36:55.401Z,34.80
2018-06-29T12:39:24.053Z,34.60
2018-06-29T12:41:53.386Z,34.60
2018-06-29T12:44:22.681Z,34.90
2018-06-29T12:46:51.304Z,35.00
2018-06-29T12:49:20.069Z,35.10
2018-06-29T12:51:48.722Z,35.50
2018-06-29T12:54:17.311Z,35.30
2018-06-29T12:56:46.107Z,35.30
2018-06-29T12:59:14.886Z,34.10
2018-06-29T13:01:45.560Z,34.90
2018-06-29T13:04:15.490Z,34.50
2018-06-29T13:06:44.633Z,35.50
2018-06-29T13:09:13.224Z,35.50
2018-06-29T13:11:42.024Z,36.30
2018-06-29T13:14:10.856Z,35.80
2018-06-29T13:16:39.522Z,34.80
2018-06-29T13:19:08.315Z,35.10
2018-06-29T13:21:37.045Z,34.70
2018-06-29T13:24:05.751Z,34.60
2018-06-29T13:26:34.750Z,34.90
2018-06-29T13:29:03.602Z,35.10
2018-06-29T13:31:32.391Z,35.10
2018-06-29T13:34:03.031Z,35.10
2018-06-29T13:36:31.787Z,35.10
2018-06-29T13:39:00.594Z,35.10
2018-06-29T13:41:29.223Z,34.60
2018-06-29T13:43:57.954Z,35.10
2018-06-29T13:46:26.553Z,35.30
2018-06-29T13:48:55.100Z,35.00
2018-06-29T13:51:24.255Z,35.30
2018-06-29T13:53:53.457Z,34.90
2018-06-29T13:56:22.936Z,34.60
2018-06-29T13:58:52.234Z,35.10
2018-06-29T14:01:21.134Z,35.00
2018-06-29T14:03:49.791Z,34.90
2018-06-29T14:06:18.416Z,35.30
2018-06-29T14:08:47.054Z,34.50
2018-06-29T14:11:15.687Z,33.80
2018-06-29T14:13:44.153Z,33.60
2018-06-29T14:16:12.709Z,33.50
2018-06-29T14:18:41.270Z,32.70
2018-06-29T14:21:10.116Z,33.00
2018-06-29T14:23:38.712Z,33.10
2018-06-29T14:26:07.390Z,32.50
2018-06-29T14:28:36.061Z,32.50
2018-06-29T14:31:04.665Z,32.60
2018-06-29T14:33:33.347Z,32.80
2018-06-29T14:36:01.912Z,33.00
2018-06-29T14:38:30.438Z,32.10
2018-06-29T14:40:59.853Z,32.20
2018-06-29T14:43:28.404Z,32.10
2018-06-29T14:45:57.051Z,32.50
2018-06-29T14:48:25.584Z,32.30
2018-06-29T14:50:54.230Z,32.70
2018-06-29T14:53:23.348Z,32.70
2018-06-29T14:55:51.854Z,32.70
2018-06-29T14:58:20.275Z,33.20
2018-06-29T15:00:49.665Z,32.90
2018-06-29T15:03:18.232Z,32.30
2018-06-29T15:05:46.792Z,32.20
2018-06-29T15:08:15.539Z,31.60
2018-06-29T15:10:44.289Z,31.70
2018-06-29T15:13:12.848Z,31.30
2018-06-29T15:15:42.157Z,31.10
2018-06-29T15:18:11.760Z,30.70
2018-06-29T15:20:40.277Z,30.80
2018-06-29T15:23:08.787Z,30.50
2018-06-29T15:25:37.320Z,30.20
2018-06-29T15:28:06.347Z,30.00
2018-06-29T15:30:35.554Z,29.30
2018-06-29T15:33:04.320Z,28.80
2018-06-29T15:35:32.854Z,28.50
2018-06-29T15:38:01.502Z,27.90
2018-06-29T15:40:30.290Z,27.70
2018-06-29T15:42:58.906Z,26.80
2018-06-29T15:45:27.628Z,26.90
2018-06-29T15:47:56.327Z,27.00
2018-06-29T15:50:25.868Z,26.70
2018-06-29T15:52:54.492Z,26.40
2018-06-29T15:55:23.105Z,26.10
2018-06-29T15:57:52.420Z,26.40
2018-06-29T16:00:21.232Z,26.50
2018-06-29T16:02:50.203Z,26.30
2018-06-29T16:05:18.685Z,26.40
2018-06-29T16:07:47.847Z,26.00
2018-06-29T16:10:16.881Z,26.20
2018-06-29T16:12:45.388Z,25.90
2018-06-29T16:15:14.035Z,25.20
2018-06-29T16:17:42.781Z,25.50
2018-06-29T16:20:11.413Z,25.30
2018-06-29T16:22:40.103Z,25.60
2018-06-29T16:25:09.074Z,25.20
2018-06-29T16:27:37.878Z,24.80
2018-06-29T16:30:07.272Z,24.90
2018-06-29T16:32:36.031Z,25.00
2018-06-29T16:35:05.175Z,24.80
2018-06-29T16:37:33.940Z,24.40
2018-06-29T16:40:02.593Z,24.50
2018-06-29T16:42:31.273Z,24.50
2018-06-29T16:44:59.940Z,24.40
2018-06-29T16:47:28.601Z,24.30
2018-06-29T16:49:57.218Z,23.80
2018-06-29T16:52:25.876Z,23.90
2018-06-29T16:54:54.476Z,23.60
2018-06-29T16:57:23.240Z,23.40
2018-06-29T16:59:51.821Z,23.20
2018-06-29T17:02:20.471Z,23.30
2018-06-29T17:04:49.161Z,23.20
2018-06-29T17:07:17.842Z,23.10
2018-06-29T17:09:46.551Z,23.10
2018-06-29T17:12:15.286Z,23.10
2018-06-29T17:14:43.961Z,23.10
2018-06-29T17:17:12.525Z,22.60
2018-06-29T17:19:41.142Z,22.30
2018-06-29T17:22:09.928Z,22.50
2018-06-29T17:24:38.593Z,22.40
2018-06-29T17:27:07.183Z,22.30
2018-06-29T17:29:35.790Z,22.20
2018-06-29T17:32:04.485Z,22.40
2018-06-29T17:34:33.202Z,22.20
2018-06-29T17:37:02.480Z,22.10
2018-06-29T17:39:31.217Z,21.90
2018-06-29T17:41:59.926Z,22.00
2018-06-29T17:44:28.522Z,21.90
2018-06-29T17:46:57.575Z,21.90
2018-06-29T17:51:54.560Z,21.80
2018-06-29T17:54:23.536Z,21.70
2018-06-29T17:56:52.215Z,21.60
2018-06-29T17:59:20.825Z,21.50
2018-06-29T18:01:49.506Z,21.30
2018-06-29T18:04:18.151Z,21.50
2018-06-29T18:06:46.788Z,21.50
2018-06-29T18:09:15.434Z,21.40
2018-06-29T18:11:44.126Z,21.20
2018-06-29T18:14:12.794Z,21.10
2018-06-29T18:16:42.033Z,20.90
2018-06-29T18:19:11.763Z,20.90
2018-06-29T18:21:40.446Z,20.90
2018-06-29T18:24:11.996Z,20.80
2018-06-29T18:26:40.772Z,20.70
2018-06-29T18:29:09.406Z,20.70
2018-06-29T18:31:38.026Z,20.70
2018-06-29T18:34:06.745Z,20.70
2018-06-29T18:36:35.365Z,20.50
2018-06-29T18:39:06.144Z,20.30
2018-06-29T18:41:35.598Z,20.40
2018-06-29T18:44:04.418Z,20.30
2018-06-29T18:46:33.113Z,20.20
2018-06-29T18:49:01.839Z,20.20
2018-06-29T18:51:30.478Z,20.20
2018-06-29T18:54:00.308Z,20.00
2018-06-29T18:56:28.933Z,19.90
2018-06-29T18:58:57.589Z,19.90
2018-06-29T19:01:26.246Z,19.90
2018-06-29T19:03:54.937Z,19.80
2018-06-29T19:06:23.830Z,19.90
2018-06-29T19:08:52.664Z,19.80
2018-06-29T19:11:21.294Z,19.70
2018-06-29T19:13:50.019Z,19.60
2018-06-29T19:16:18.806Z,19.50
2018-06-29T19:18:47.414Z,19.60
2018-06-29T19:21:15.984Z,19.40
2018-06-29T19:23:44.670Z,19.40
2018-06-29T19:26:13.339Z,19.20
2018-06-29T19:28:42.046Z,19.30
2018-06-29T19:31:11.994Z,19.20
2018-06-29T19:33:40.687Z,19.10
2018-06-29T19:36:09.500Z,19.00
2018-06-29T19:38:38.237Z,19.00
2018-06-29T19:41:06.947Z,18.70
2018-06-29T19:43:35.762Z,18.80
2018-06-29T19:46:04.568Z,18.80
2018-06-29T19:48:33.334Z,18.60
2018-06-29T19:51:02.690Z,18.50
2018-06-29T19:53:31.397Z,18.50
2018-06-29T19:58:28.565Z,18.40
2018-06-29T20:00:57.274Z,18.40
2018-06-29T20:03:25.904Z,18.30
2018-06-29T20:05:54.526Z,18.10
2018-06-29T20:08:23.210Z,18.10
2018-06-29T20:10:52.631Z,18.00
2018-06-29T20:13:21.285Z,17.90
2018-06-29T20:15:50.022Z,17.90
2018-06-29T20:18:18.701Z,17.80
2018-06-29T20:20:47.321Z,17.80
2018-06-29T20:23:15.905Z,17.70
2018-06-29T20:25:44.597Z,17.50
2018-06-29T20:28:13.285Z,17.50
2018-06-29T20:30:42.020Z,17.40
2018-06-29T20:33:10.937Z,17.40
2018-06-29T20:35:39.565Z,17.40
2018-06-29T20:38:08.290Z,17.20
2018-06-29T20:40:36.910Z,17.20
2018-06-29T20:43:06.109Z,17.20
2018-06-29T20:45:34.716Z,17.10
2018-06-29T20:48:03.346Z,17.00
2018-06-29T20:50:31.999Z,17.00
2018-06-29T20:53:00.795Z,16.90
2018-06-29T20:55:29.366Z,16.80
2018-06-29T20:57:58.866Z,16.70
2018-06-29T21:00:27.594Z,16.70
2018-06-29T21:02:56.308Z,16.60
2018-06-29T21:05:25.948Z,16.60
2018-06-29T21:07:54.732Z,16.50
2018-06-29T21:10:24.034Z,16.40
2018-06-29T21:12:53.004Z,16.40
2018-06-29T21:15:21.621Z,16.30
2018-06-29T21:17:50.275Z,16.30
2018-06-29T21:20:18.909Z,16.20
2018-06-29T21:22:47.520Z,16.20
2018-06-29T21:25:16.136Z,16.10
2018-06-29T21:27:44.798Z,16.10
2018-06-29T21:30:13.429Z,16.00
2018-06-29T21:32:42.103Z,15.90
2018-06-29T21:35:10.829Z,15.80
2018-06-29T21:37:39.410Z,15.80
2018-06-29T21:40:08.083Z,15.70
2018-06-29T21:42:36.669Z,15.60
2018-06-29T21:47:33.799Z,15.50
2018-06-29T21:50:02.462Z,15.40
2018-06-29T21:52:31.128Z,15.40
2018-06-29T21:54:59.745Z,15.30
2018-06-29T21:57:28.357Z,15.20
2018-06-29T21:59:57.008Z,15.20
2018-06-29T22:02:25.706Z,15.20
2018-06-29T22:04:54.353Z,15.10
2018-06-29T22:07:23.854Z,15.10
2018-06-29T22:09:52.688Z,15.10
2018-06-29T22:12:21.303Z,15.00
2018-06-29T22:14:49.995Z,14.90
2018-06-29T22:17:18.693Z,14.90
2018-06-29T22:19:47.338Z,14.80
2018-06-29T22:22:15.921Z,14.80
2018-06-29T22:24:44.614Z,14.70
2018-06-29T22:27:13.376Z,14.60
2018-06-29T22:29:42.013Z,14.60
2018-06-29T22:32:10.628Z,14.50
2018-06-29T22:34:39.377Z,14.50
2018-06-29T22:37:08.240Z,14.40
2018-06-29T22:42:05.374Z,14.30
2018-06-29T22:44:34.048Z,14.20
2018-06-29T22:47:02.575Z,14.20
2018-06-29T22:49:31.464Z,14.10
2018-06-29T22:52:00.026Z,14.10
2018-06-29T22:54:28.632Z,14.00
2018-06-29T22:56:57.420Z,13.90
2018-06-29T22:59:26.844Z,13.90
2018-06-29T23:01:55.546Z,13.80
2018-06-29T23:04:24.173Z,13.80
2018-06-29T23:06:52.811Z,13.70
2018-06-29T23:09:21.456Z,13.70
2018-06-29T23:11:50.115Z,13.60
2018-06-29T23:14:18.841Z,13.60
2018-06-29T23:16:47.532Z,13.50
2018-06-29T23:19:16.197Z,13.40
2018-06-29T23:21:44.859Z,13.40
2018-06-29T23:24:13.410Z,13.30
2018-06-29T23:26:42.075Z,13.30
2018-06-29T23:29:10.725Z,13.20
2018-06-29T23:31:40.210Z,13.20
2018-06-29T23:34:08.797Z,13.10
2018-06-29T23:36:37.378Z,13.10
2018-06-29T23:41:35.532Z,13.00
2018-06-29T23:44:04.260Z,13.00
2018-06-29T23:46:33.100Z,12.90
2018-06-29T23:49:01.794Z,12.80
2018-06-29T23:51:30.369Z,12.80
2018-06-29T23:53:59.156Z,12.80
2018-06-29T23:56:27.755Z,12.70
2018-06-29T23:58:56.297Z,12.70
